KHRL/HRL METAR and TAF weather

Enter ICAO airport designator
Station Type Date Time Source
KHRL METAR 2019/04/26 03:52 UTC NOAA

KHRL 260352Z 10003KT 10SM CLR 20/18 A2998 RMK AO2 SLP151 T02000178


Station Type Date Time Source
KHRL Decoded METAR 2019/04/26 03:52 UTC NOAA

RIO GRANDE VALLEY, TX, United States (KHRL) 26-13N 97-39W 10M
Apr 25, 2019 - 11:52 PM EDT / 2019.04.26 0352 UTC
Wind: from the E (100 degrees) at 3 MPH (3 KT):0
Visibility: 10 mile(s):0
Sky conditions: clear
Temperature: 68.0 F (20.0 C)
Dew Point: 64.0 F (17.8 C)
Relative Humidity: 87%
Pressure (altimeter): 29.98 in. Hg (1015 hPa)
ob: KHRL 260352Z 10003KT 10SM CLR 20/18 A2998 RMK AO2 SLP151 T02000178
cycle: 4

Station Type Date Time Source
KHRL TAF 2019/04/25 18:22 UTC NOAA

TAF KHRL 251720Z 2518/2618 33007KT P6SM SKC
FM252100 06009KT P6SM SKC
FM260100 VRB05KT P6SM SKC

Example: see airport list